sensor_id;sensor_type;location;lat;lon;timestamp;P1;durP1;ratioP1;P2;durP2;ratioP2
66129;SDS011;52930;51.464;11.764;2022-11-15T00:00:44;19.65;;;8.48;;
66129;SDS011;52930;51.464;11.764;2022-11-15T00:03:09;18.83;;;8.27;;
66129;SDS011;52930;51.464;11.764;2022-11-15T00:05:35;22.43;;;8.97;;
66129;SDS011;52930;51.464;11.764;2022-11-15T00:08:01;21.42;;;9.40;;
66129;SDS011;52930;51.464;11.764;2022-11-15T00:10:26;19.93;;;8.17;;
66129;SDS011;52930;51.464;11.764;2022-11-15T00:12:51;20.60;;;8.97;;
66129;SDS011;52930;51.464;11.764;2022-11-15T00:15:17;24.90;;;8.83;;
66129;SDS011;52930;51.464;11.764;2022-11-15T00:17:42;22.03;;;8.50;;
66129;SDS011;52930;51.464;11.764;2022-11-15T00:20:08;19.43;;;7.73;;
66129;SDS011;52930;51.464;11.764;2022-11-15T00:22:34;20.48;;;7.72;;
66129;SDS011;52930;51.464;11.764;2022-11-15T00:24:59;20.10;;;8.63;;
66129;SDS011;52930;51.464;11.764;2022-11-15T00:27:24;19.30;;;8.37;;
66129;SDS011;52930;51.464;11.764;2022-11-15T00:29:50;21.97;;;8.40;;
66129;SDS011;52930;51.464;11.764;2022-11-15T00:32:15;19.10;;;8.20;;
66129;SDS011;52930;51.464;11.764;2022-11-15T00:34:41;18.07;;;8.07;;
66129;SDS011;52930;51.464;11.764;2022-11-15T00:37:06;21.30;;;8.60;;
66129;SDS011;52930;51.464;11.764;2022-11-15T00:39:31;19.63;;;8.07;;
66129;SDS011;52930;51.464;11.764;2022-11-15T00:41:57;17.58;;;7.85;;
66129;SDS011;52930;51.464;11.764;2022-11-15T00:44:24;20.40;;;8.00;;
66129;SDS011;52930;51.464;11.764;2022-11-15T00:46:49;21.85;;;8.15;;
66129;SDS011;52930;51.464;11.764;2022-11-15T00:49:14;20.02;;;8.18;;
66129;SDS011;52930;51.464;11.764;2022-11-15T00:51:40;19.53;;;8.07;;
66129;SDS011;52930;51.464;11.764;2022-11-15T00:54:05;19.97;;;8.07;;
66129;SDS011;52930;51.464;11.764;2022-11-15T00:56:30;18.07;;;8.13;;
66129;SDS011;52930;51.464;11.764;2022-11-15T00:58:56;20.43;;;7.83;;
66129;SDS011;52930;51.464;11.764;2022-11-15T01:01:21;19.43;;;7.57;;
66129;SDS011;52930;51.464;11.764;2022-11-15T01:03:47;20.85;;;7.63;;
66129;SDS011;52930;51.464;11.764;2022-11-15T01:06:12;22.30;;;8.20;;
66129;SDS011;52930;51.464;11.764;2022-11-15T01:08:40;19.50;;;8.43;;
66129;SDS011;52930;51.464;11.764;2022-11-15T01:11:07;20.98;;;7.95;;
66129;SDS011;52930;51.464;11.764;2022-11-15T01:13:36;17.17;;;7.60;;
66129;SDS011;52930;51.464;11.764;2022-11-15T01:16:09;18.60;;;7.60;;
66129;SDS011;52930;51.464;11.764;2022-11-15T01:18:37;19.70;;;7.85;;
66129;SDS011;52930;51.464;11.764;2022-11-15T01:21:07;17.10;;;6.65;;
66129;SDS011;52930;51.464;11.764;2022-11-15T01:23:36;16.27;;;7.07;;
66129;SDS011;52930;51.464;11.764;2022-11-15T01:26:03;19.23;;;7.40;;
66129;SDS011;52930;51.464;11.764;2022-11-15T01:28:31;17.52;;;7.63;;
66129;SDS011;52930;51.464;11.764;2022-11-15T01:31:01;15.57;;;6.23;;
66129;SDS011;52930;51.464;11.764;2022-11-15T01:33:27;19.55;;;7.43;;
66129;SDS011;52930;51.464;11.764;2022-11-15T01:35:53;16.90;;;6.72;;
66129;SDS011;52930;51.464;11.764;2022-11-15T01:38:19;18.70;;;7.72;;
66129;SDS011;52930;51.464;11.764;2022-11-15T01:40:44;15.10;;;6.53;;
66129;SDS011;52930;51.464;11.764;2022-11-15T01:43:23;17.73;;;7.13;;
66129;SDS011;52930;51.464;11.764;2022-11-15T01:45:51;15.65;;;7.18;;
66129;SDS011;52930;51.464;11.764;2022-11-15T01:48:22;15.75;;;6.47;;
66129;SDS011;52930;51.464;11.764;2022-11-15T01:50:49;15.65;;;6.43;;
66129;SDS011;52930;51.464;11.764;2022-11-15T01:53:16;16.83;;;7.20;;
66129;SDS011;52930;51.464;11.764;2022-11-15T01:55:42;16.73;;;6.93;;
66129;SDS011;52930;51.464;11.764;2022-11-15T01:58:08;13.88;;;6.22;;
66129;SDS011;52930;51.464;11.764;2022-11-15T02:00:33;17.10;;;7.03;;
66129;SDS011;52930;51.464;11.764;2022-11-15T02:02:58;15.17;;;6.60;;
66129;SDS011;52930;51.464;11.764;2022-11-15T02:05:24;18.67;;;8.23;;
66129;SDS011;52930;51.464;11.764;2022-11-15T02:07:50;16.58;;;6.90;;
66129;SDS011;52930;51.464;11.764;2022-11-15T02:10:23;17.20;;;6.90;;
66129;SDS011;52930;51.464;11.764;2022-11-15T02:12:49;14.65;;;6.85;;
66129;SDS011;52930;51.464;11.764;2022-11-15T02:15:14;16.97;;;6.23;;
66129;SDS011;52930;51.464;11.764;2022-11-15T02:20:14;18.53;;;7.73;;
66129;SDS011;52930;51.464;11.764;2022-11-15T02:25:35;19.43;;;7.20;;
66129;SDS011;52930;51.464;11.764;2022-11-15T02:34:18;16.98;;;7.03;;
66129;SDS011;52930;51.464;11.764;2022-11-15T02:42:26;15.38;;;6.65;;
66129;SDS011;52930;51.464;11.764;2022-11-15T02:45:17;18.67;;;7.15;;
66129;SDS011;52930;51.464;11.764;2022-11-15T02:47:49;16.02;;;6.30;;
66129;SDS011;52930;51.464;11.764;2022-11-15T02:50:18;17.13;;;7.10;;
66129;SDS011;52930;51.464;11.764;2022-11-15T02:52:46;15.13;;;6.87;;
66129;SDS011;52930;51.464;11.764;2022-11-15T02:55:29;16.15;;;6.55;;
66129;SDS011;52930;51.464;11.764;2022-11-15T03:00:44;17.10;;;6.57;;
66129;SDS011;52930;51.464;11.764;2022-11-15T03:09:00;15.70;;;6.82;;
66129;SDS011;52930;51.464;11.764;2022-11-15T03:11:29;17.40;;;6.50;;
66129;SDS011;52930;51.464;11.764;2022-11-15T03:17:08;16.70;;;6.50;;
66129;SDS011;52930;51.464;11.764;2022-11-15T03:20:09;16.38;;;6.72;;
66129;SDS011;52930;51.464;11.764;2022-11-15T03:22:37;16.03;;;6.20;;
66129;SDS011;52930;51.464;11.764;2022-11-15T03:25:05;14.27;;;6.55;;
66129;SDS011;52930;51.464;11.764;2022-11-15T03:27:34;14.50;;;6.03;;
66129;SDS011;52930;51.464;11.764;2022-11-15T03:30:04;14.07;;;6.03;;
66129;SDS011;52930;51.464;11.764;2022-11-15T03:32:31;14.60;;;6.20;;
66129;SDS011;52930;51.464;11.764;2022-11-15T03:35:02;15.53;;;6.10;;
66129;SDS011;52930;51.464;11.764;2022-11-15T03:39:59;15.63;;;6.25;;
66129;SDS011;52930;51.464;11.764;2022-11-15T03:42:34;15.07;;;6.30;;
66129;SDS011;52930;51.464;11.764;2022-11-15T03:45:19;14.30;;;5.95;;
66129;SDS011;52930;51.464;11.764;2022-11-15T03:50:44;13.95;;;5.93;;
66129;SDS011;52930;51.464;11.764;2022-11-15T03:53:10;14.65;;;6.22;;
66129;SDS011;52930;51.464;11.764;2022-11-15T03:55:35;15.80;;;6.80;;
66129;SDS011;52930;51.464;11.764;2022-11-15T03:58:01;16.20;;;6.60;;
66129;SDS011;52930;51.464;11.764;2022-11-15T04:00:27;17.23;;;6.68;;
66129;SDS011;52930;51.464;11.764;2022-11-15T04:02:53;15.85;;;6.47;;
66129;SDS011;52930;51.464;11.764;2022-11-15T04:05:18;15.10;;;6.80;;
66129;SDS011;52930;51.464;11.764;2022-11-15T04:07:44;14.95;;;6.20;;
66129;SDS011;52930;51.464;11.764;2022-11-15T04:10:10;14.80;;;6.20;;
66129;SDS011;52930;51.464;11.764;2022-11-15T04:12:36;13.45;;;5.97;;
66129;SDS011;52930;51.464;11.764;2022-11-15T04:15:05;20.37;;;7.20;;
66129;SDS011;52930;51.464;11.764;2022-11-15T04:17:40;16.52;;;7.15;;
66129;SDS011;52930;51.464;11.764;2022-11-15T04:20:11;20.35;;;7.50;;
66129;SDS011;52930;51.464;11.764;2022-11-15T04:22:59;16.42;;;6.60;;
66129;SDS011;52930;51.464;11.764;2022-11-15T04:25:44;15.52;;;6.32;;
66129;SDS011;52930;51.464;11.764;2022-11-15T04:28:10;18.83;;;6.73;;
66129;SDS011;52930;51.464;11.764;2022-11-15T04:30:36;14.70;;;6.35;;
66129;SDS011;52930;51.464;11.764;2022-11-15T04:33:02;16.45;;;6.32;;
66129;SDS011;52930;51.464;11.764;2022-11-15T04:35:27;16.50;;;6.07;;
66129;SDS011;52930;51.464;11.764;2022-11-15T04:37:53;16.13;;;6.90;;
66129;SDS011;52930;51.464;11.764;2022-11-15T04:40:19;20.15;;;8.50;;
66129;SDS011;52930;51.464;11.764;2022-11-15T04:42:44;22.83;;;9.20;;
66129;SDS011;52930;51.464;11.764;2022-11-15T04:45:10;24.93;;;9.40;;
66129;SDS011;52930;51.464;11.764;2022-11-15T04:47:36;26.73;;;9.57;;
66129;SDS011;52930;51.464;11.764;2022-11-15T04:50:01;24.90;;;9.60;;
66129;SDS011;52930;51.464;11.764;2022-11-15T04:52:27;21.80;;;9.00;;
66129;SDS011;52930;51.464;11.764;2022-11-15T04:54:53;26.00;;;9.53;;
66129;SDS011;52930;51.464;11.764;2022-11-15T04:57:18;24.05;;;9.15;;
66129;SDS011;52930;51.464;11.764;2022-11-15T04:59:43;21.23;;;8.68;;
66129;SDS011;52930;51.464;11.764;2022-11-15T05:02:09;20.33;;;8.10;;
66129;SDS011;52930;51.464;11.764;2022-11-15T05:04:34;23.13;;;8.87;;
66129;SDS011;52930;51.464;11.764;2022-11-15T05:06:59;21.47;;;9.07;;
66129;SDS011;52930;51.464;11.764;2022-11-15T05:09:25;23.57;;;9.23;;
66129;SDS011;52930;51.464;11.764;2022-11-15T05:11:50;23.90;;;9.13;;
66129;SDS011;52930;51.464;11.764;2022-11-15T05:14:16;22.08;;;9.25;;
66129;SDS011;52930;51.464;11.764;2022-11-15T05:16:41;20.03;;;8.40;;
66129;SDS011;52930;51.464;11.764;2022-11-15T05:19:07;19.57;;;8.23;;
66129;SDS011;52930;51.464;11.764;2022-11-15T05:21:32;17.48;;;8.00;;
66129;SDS011;52930;51.464;11.764;2022-11-15T05:23:58;20.83;;;8.67;;
66129;SDS011;52930;51.464;11.764;2022-11-15T05:26:24;20.42;;;9.10;;
66129;SDS011;52930;51.464;11.764;2022-11-15T05:28:56;22.50;;;8.43;;
66129;SDS011;52930;51.464;11.764;2022-11-15T05:31:23;21.52;;;9.25;;
66129;SDS011;52930;51.464;11.764;2022-11-15T05:33:49;20.53;;;8.30;;
66129;SDS011;52930;51.464;11.764;2022-11-15T05:36:34;19.45;;;8.68;;
66129;SDS011;52930;51.464;11.764;2022-11-15T05:39:02;19.15;;;7.57;;
66129;SDS011;52930;51.464;11.764;2022-11-15T05:41:36;20.30;;;8.15;;
66129;SDS011;52930;51.464;11.764;2022-11-15T05:44:05;20.45;;;8.23;;
66129;SDS011;52930;51.464;11.764;2022-11-15T05:46:33;17.47;;;7.50;;
66129;SDS011;52930;51.464;11.764;2022-11-15T05:48:59;20.25;;;7.93;;
66129;SDS011;52930;51.464;11.764;2022-11-15T05:51:25;21.70;;;8.80;;
66129;SDS011;52930;51.464;11.764;2022-11-15T05:53:52;18.33;;;8.17;;
66129;SDS011;52930;51.464;11.764;2022-11-15T05:56:20;22.65;;;9.20;;
66129;SDS011;52930;51.464;11.764;2022-11-15T05:58:45;24.00;;;9.47;;
66129;SDS011;52930;51.464;11.764;2022-11-15T06:01:11;19.08;;;8.23;;
66129;SDS011;52930;51.464;11.764;2022-11-15T06:03:36;20.27;;;8.17;;
66129;SDS011;52930;51.464;11.764;2022-11-15T06:06:02;18.10;;;8.17;;
66129;SDS011;52930;51.464;11.764;2022-11-15T06:08:27;20.07;;;8.57;;
66129;SDS011;52930;51.464;11.764;2022-11-15T06:10:52;18.77;;;7.70;;
66129;SDS011;52930;51.464;11.764;2022-11-15T06:13:18;19.55;;;8.40;;
66129;SDS011;52930;51.464;11.764;2022-11-15T06:15:43;19.08;;;8.25;;
66129;SDS011;52930;51.464;11.764;2022-11-15T06:18:08;19.03;;;7.70;;
66129;SDS011;52930;51.464;11.764;2022-11-15T06:20:34;17.80;;;8.13;;
66129;SDS011;52930;51.464;11.764;2022-11-15T06:23:00;18.50;;;7.40;;
66129;SDS011;52930;51.464;11.764;2022-11-15T06:25:27;15.85;;;6.85;;
66129;SDS011;52930;51.464;11.764;2022-11-15T06:27:53;19.27;;;6.90;;
66129;SDS011;52930;51.464;11.764;2022-11-15T06:30:19;16.93;;;7.00;;
66129;SDS011;52930;51.464;11.764;2022-11-15T06:32:45;17.92;;;6.95;;
66129;SDS011;52930;51.464;11.764;2022-11-15T06:35:11;14.60;;;6.70;;
66129;SDS011;52930;51.464;11.764;2022-11-15T06:37:37;19.43;;;6.97;;
66129;SDS011;52930;51.464;11.764;2022-11-15T06:40:02;17.88;;;6.63;;
66129;SDS011;52930;51.464;11.764;2022-11-15T06:42:28;17.95;;;6.43;;
66129;SDS011;52930;51.464;11.764;2022-11-15T06:44:53;14.23;;;6.43;;
66129;SDS011;52930;51.464;11.764;2022-11-15T06:47:19;18.20;;;7.23;;
66129;SDS011;52930;51.464;11.764;2022-11-15T06:49:44;16.83;;;7.03;;
66129;SDS011;52930;51.464;11.764;2022-11-15T06:52:09;18.75;;;7.22;;
66129;SDS011;52930;51.464;11.764;2022-11-15T06:54:35;18.85;;;7.75;;
66129;SDS011;52930;51.464;11.764;2022-11-15T06:57:00;17.57;;;7.30;;
66129;SDS011;52930;51.464;11.764;2022-11-15T06:59:25;17.60;;;7.20;;
66129;SDS011;52930;51.464;11.764;2022-11-15T07:01:51;16.93;;;6.83;;
66129;SDS011;52930;51.464;11.764;2022-11-15T07:04:16;17.30;;;6.87;;
66129;SDS011;52930;51.464;11.764;2022-11-15T07:06:42;18.30;;;6.93;;
66129;SDS011;52930;51.464;11.764;2022-11-15T07:09:07;14.10;;;6.23;;
66129;SDS011;52930;51.464;11.764;2022-11-15T07:11:33;14.40;;;6.20;;
66129;SDS011;52930;51.464;11.764;2022-11-15T07:13:59;17.27;;;6.18;;
66129;SDS011;52930;51.464;11.764;2022-11-15T07:16:25;13.82;;;6.20;;
66129;SDS011;52930;51.464;11.764;2022-11-15T07:18:50;14.00;;;5.90;;
66129;SDS011;52930;51.464;11.764;2022-11-15T07:21:15;15.90;;;5.67;;
66129;SDS011;52930;51.464;11.764;2022-11-15T07:23:41;14.83;;;6.17;;
66129;SDS011;52930;51.464;11.764;2022-11-15T07:26:07;14.73;;;6.10;;
66129;SDS011;52930;51.464;11.764;2022-11-15T07:28:33;13.20;;;6.13;;
66129;SDS011;52930;51.464;11.764;2022-11-15T07:31:01;12.07;;;5.45;;
66129;SDS011;52930;51.464;11.764;2022-11-15T07:33:30;16.23;;;6.53;;
66129;SDS011;52930;51.464;11.764;2022-11-15T07:35:58;16.30;;;6.32;;
66129;SDS011;52930;51.464;11.764;2022-11-15T07:38:26;12.27;;;5.72;;
66129;SDS011;52930;51.464;11.764;2022-11-15T07:41:10;13.10;;;5.53;;
66129;SDS011;52930;51.464;11.764;2022-11-15T07:43:35;15.45;;;6.47;;
66129;SDS011;52930;51.464;11.764;2022-11-15T07:46:04;14.10;;;6.67;;
66129;SDS011;52930;51.464;11.764;2022-11-15T07:48:30;12.15;;;5.20;;
66129;SDS011;52930;51.464;11.764;2022-11-15T07:50:56;14.47;;;5.57;;
66129;SDS011;52930;51.464;11.764;2022-11-15T07:53:21;12.83;;;6.10;;
66129;SDS011;52930;51.464;11.764;2022-11-15T07:55:46;13.52;;;6.20;;
66129;SDS011;52930;51.464;11.764;2022-11-15T07:58:12;14.05;;;5.95;;
66129;SDS011;52930;51.464;11.764;2022-11-15T08:00:37;11.77;;;5.67;;
66129;SDS011;52930;51.464;11.764;2022-11-15T08:05:28;12.83;;;6.03;;
66129;SDS011;52930;51.464;11.764;2022-11-15T08:07:57;16.63;;;6.00;;
66129;SDS011;52930;51.464;11.764;2022-11-15T08:10:22;13.77;;;5.82;;
66129;SDS011;52930;51.464;11.764;2022-11-15T08:12:48;11.67;;;5.03;;
66129;SDS011;52930;51.464;11.764;2022-11-15T08:15:13;12.83;;;6.27;;
66129;SDS011;52930;51.464;11.764;2022-11-15T08:17:39;14.07;;;6.00;;
66129;SDS011;52930;51.464;11.764;2022-11-15T08:20:04;12.07;;;5.27;;
66129;SDS011;52930;51.464;11.764;2022-11-15T08:22:30;12.82;;;6.13;;
66129;SDS011;52930;51.464;11.764;2022-11-15T08:24:55;12.47;;;6.10;;
66129;SDS011;52930;51.464;11.764;2022-11-15T08:27:20;13.07;;;5.73;;
66129;SDS011;52930;51.464;11.764;2022-11-15T08:29:47;14.30;;;6.33;;
66129;SDS011;52930;51.464;11.764;2022-11-15T08:32:13;13.85;;;6.45;;
66129;SDS011;52930;51.464;11.764;2022-11-15T08:34:38;16.50;;;7.03;;
66129;SDS011;52930;51.464;11.764;2022-11-15T08:37:04;15.53;;;6.77;;
66129;SDS011;52930;51.464;11.764;2022-11-15T08:39:29;13.43;;;6.47;;
66129;SDS011;52930;51.464;11.764;2022-11-15T08:41:55;13.17;;;5.73;;
66129;SDS011;52930;51.464;11.764;2022-11-15T08:44:20;12.60;;;5.83;;
66129;SDS011;52930;51.464;11.764;2022-11-15T08:46:46;13.43;;;5.70;;
66129;SDS011;52930;51.464;11.764;2022-11-15T08:49:11;13.10;;;5.33;;
66129;SDS011;52930;51.464;11.764;2022-11-15T08:51:37;13.27;;;6.13;;
66129;SDS011;52930;51.464;11.764;2022-11-15T08:54:02;12.30;;;5.70;;
66129;SDS011;52930;51.464;11.764;2022-11-15T08:56:27;12.20;;;5.80;;
66129;SDS011;52930;51.464;11.764;2022-11-15T08:58:53;12.30;;;5.57;;
66129;SDS011;52930;51.464;11.764;2022-11-15T09:01:19;12.20;;;4.93;;
66129;SDS011;52930;51.464;11.764;2022-11-15T09:03:45;13.52;;;5.43;;
66129;SDS011;52930;51.464;11.764;2022-11-15T09:06:10;11.90;;;5.47;;
66129;SDS011;52930;51.464;11.764;2022-11-15T09:08:36;14.13;;;5.27;;
66129;SDS011;52930;51.464;11.764;2022-11-15T09:11:05;14.30;;;5.37;;
66129;SDS011;52930;51.464;11.764;2022-11-15T09:13:31;14.43;;;5.82;;
66129;SDS011;52930;51.464;11.764;2022-11-15T09:16:00;10.73;;;5.00;;
66129;SDS011;52930;51.464;11.764;2022-11-15T09:18:26;10.75;;;4.72;;
66129;SDS011;52930;51.464;11.764;2022-11-15T09:20:54;11.05;;;4.25;;
66129;SDS011;52930;51.464;11.764;2022-11-15T09:23:21;10.00;;;4.57;;
66129;SDS011;52930;51.464;11.764;2022-11-15T09:25:47;11.43;;;4.90;;
66129;SDS011;52930;51.464;11.764;2022-11-15T09:28:12;11.20;;;5.10;;
66129;SDS011;52930;51.464;11.764;2022-11-15T09:30:38;11.13;;;4.53;;
66129;SDS011;52930;51.464;11.764;2022-11-15T09:33:07;9.97;;;4.70;;
66129;SDS011;52930;51.464;11.764;2022-11-15T09:35:33;9.43;;;4.18;;
66129;SDS011;52930;51.464;11.764;2022-11-15T09:37:59;8.70;;;3.60;;
66129;SDS011;52930;51.464;11.764;2022-11-15T09:40:24;7.87;;;3.47;;
66129;SDS011;52930;51.464;11.764;2022-11-15T09:48:14;7.63;;;3.58;;
66129;SDS011;52930;51.464;11.764;2022-11-15T09:50:56;12.07;;;4.20;;
66129;SDS011;52930;51.464;11.764;2022-11-15T09:56:00;6.97;;;3.40;;
66129;SDS011;52930;51.464;11.764;2022-11-15T09:58:36;7.43;;;3.03;;
66129;SDS011;52930;51.464;11.764;2022-11-15T10:01:08;7.78;;;3.30;;
66129;SDS011;52930;51.464;11.764;2022-11-15T10:03:42;11.20;;;3.80;;
66129;SDS011;52930;51.464;11.764;2022-11-15T10:06:14;8.70;;;3.58;;
66129;SDS011;52930;51.464;11.764;2022-11-15T10:11:22;8.23;;;3.28;;
66129;SDS011;52930;51.464;11.764;2022-11-15T10:13:50;8.55;;;3.08;;
66129;SDS011;52930;51.464;11.764;2022-11-15T10:24:34;8.25;;;2.80;;
66129;SDS011;52930;51.464;11.764;2022-11-15T10:27:06;8.13;;;2.80;;
66129;SDS011;52930;51.464;11.764;2022-11-15T10:29:34;8.35;;;2.80;;
66129;SDS011;52930;51.464;11.764;2022-11-15T10:31:59;9.52;;;2.90;;
66129;SDS011;52930;51.464;11.764;2022-11-15T10:34:25;6.87;;;2.50;;
66129;SDS011;52930;51.464;11.764;2022-11-15T10:36:55;9.18;;;2.90;;
66129;SDS011;52930;51.464;11.764;2022-11-15T10:39:22;8.57;;;2.97;;
66129;SDS011;52930;51.464;11.764;2022-11-15T10:41:48;5.75;;;2.63;;
66129;SDS011;52930;51.464;11.764;2022-11-15T10:46:44;7.90;;;2.83;;
66129;SDS011;52930;51.464;11.764;2022-11-15T10:49:20;6.55;;;3.13;;
66129;SDS011;52930;51.464;11.764;2022-11-15T10:54:28;7.18;;;2.97;;
66129;SDS011;52930;51.464;11.764;2022-11-15T10:56:56;7.32;;;3.45;;
66129;SDS011;52930;51.464;11.764;2022-11-15T10:59:27;8.02;;;3.20;;
66129;SDS011;52930;51.464;11.764;2022-11-15T11:01:54;7.18;;;3.17;;
66129;SDS011;52930;51.464;11.764;2022-11-15T11:04:20;9.50;;;3.50;;
66129;SDS011;52930;51.464;11.764;2022-11-15T11:09:28;6.65;;;2.83;;
66129;SDS011;52930;51.464;11.764;2022-11-15T11:12:00;7.68;;;3.22;;
66129;SDS011;52930;51.464;11.764;2022-11-15T11:14:34;10.90;;;4.32;;
66129;SDS011;52930;51.464;11.764;2022-11-15T11:17:16;12.27;;;5.22;;
66129;SDS011;52930;51.464;11.764;2022-11-15T11:25:49;10.93;;;5.10;;
66129;SDS011;52930;51.464;11.764;2022-11-15T11:31:06;10.45;;;4.60;;
66129;SDS011;52930;51.464;11.764;2022-11-15T11:37:01;8.68;;;4.00;;
66129;SDS011;52930;51.464;11.764;2022-11-15T11:42:28;10.07;;;3.65;;
66129;SDS011;52930;51.464;11.764;2022-11-15T11:47:39;9.77;;;3.97;;
66129;SDS011;52930;51.464;11.764;2022-11-15T11:53:05;8.82;;;3.22;;
66129;SDS011;52930;51.464;11.764;2022-11-15T11:55:33;6.10;;;2.53;;
66129;SDS011;52930;51.464;11.764;2022-11-15T11:58:13;10.35;;;2.50;;
66129;SDS011;52930;51.464;11.764;2022-11-15T12:01:05;5.93;;;2.33;;
66129;SDS011;52930;51.464;11.764;2022-11-15T12:03:59;5.25;;;1.70;;
66129;SDS011;52930;51.464;11.764;2022-11-15T12:14:35;5.13;;;1.77;;
66129;SDS011;52930;51.464;11.764;2022-11-15T12:17:07;6.20;;;1.88;;
66129;SDS011;52930;51.464;11.764;2022-11-15T12:19:34;5.28;;;2.00;;
66129;SDS011;52930;51.464;11.764;2022-11-15T12:22:22;6.20;;;1.90;;
66129;SDS011;52930;51.464;11.764;2022-11-15T12:25:03;6.03;;;1.75;;
66129;SDS011;52930;51.464;11.764;2022-11-15T12:27:37;5.88;;;2.10;;
66129;SDS011;52930;51.464;11.764;2022-11-15T12:30:08;7.85;;;2.00;;
66129;SDS011;52930;51.464;11.764;2022-11-15T12:32:37;4.97;;;1.90;;
66129;SDS011;52930;51.464;11.764;2022-11-15T12:35:04;5.50;;;1.90;;
66129;SDS011;52930;51.464;11.764;2022-11-15T12:37:46;4.47;;;1.80;;
66129;SDS011;52930;51.464;11.764;2022-11-15T12:42:58;4.65;;;1.83;;
66129;SDS011;52930;51.464;11.764;2022-11-15T12:47:53;5.30;;;1.55;;
66129;SDS011;52930;51.464;11.764;2022-11-15T12:50:52;6.78;;;2.10;;
66129;SDS011;52930;51.464;11.764;2022-11-15T13:11:53;6.20;;;2.00;;
66129;SDS011;52930;51.464;11.764;2022-11-15T13:19:49;7.40;;;2.70;;
66129;SDS011;52930;51.464;11.764;2022-11-15T13:22:18;5.55;;;2.08;;
66129;SDS011;52930;51.464;11.764;2022-11-15T13:25:02;6.15;;;2.38;;
66129;SDS011;52930;51.464;11.764;2022-11-15T13:27:28;6.85;;;2.50;;
66129;SDS011;52930;51.464;11.764;2022-11-15T13:29:54;6.60;;;2.35;;
66129;SDS011;52930;51.464;11.764;2022-11-15T13:32:19;7.22;;;2.40;;
66129;SDS011;52930;51.464;11.764;2022-11-15T13:34:49;5.83;;;2.50;;
66129;SDS011;52930;51.464;11.764;2022-11-15T13:39:45;6.95;;;2.45;;
66129;SDS011;52930;51.464;11.764;2022-11-15T13:42:15;7.27;;;2.23;;
66129;SDS011;52930;51.464;11.764;2022-11-15T13:44:53;5.75;;;2.10;;
66129;SDS011;52930;51.464;11.764;2022-11-15T13:47:29;6.72;;;2.00;;
66129;SDS011;52930;51.464;11.764;2022-11-15T13:49:58;8.17;;;2.43;;
66129;SDS011;52930;51.464;11.764;2022-11-15T13:52:25;5.10;;;2.10;;
66129;SDS011;52930;51.464;11.764;2022-11-15T13:54:58;7.72;;;2.15;;
66129;SDS011;52930;51.464;11.764;2022-11-15T13:57:46;5.75;;;2.05;;
66129;SDS011;52930;51.464;11.764;2022-11-15T14:00:42;4.70;;;1.88;;
66129;SDS011;52930;51.464;11.764;2022-11-15T14:03:19;5.82;;;2.30;;
66129;SDS011;52930;51.464;11.764;2022-11-15T14:08:40;5.38;;;1.83;;
66129;SDS011;52930;51.464;11.764;2022-11-15T14:11:25;6.22;;;2.30;;
66129;SDS011;52930;51.464;11.764;2022-11-15T14:16:35;9.52;;;2.20;;
66129;SDS011;52930;51.464;11.764;2022-11-15T14:19:02;10.23;;;2.30;;
66129;SDS011;52930;51.464;11.764;2022-11-15T14:21:28;6.53;;;2.40;;
66129;SDS011;52930;51.464;11.764;2022-11-15T14:24:13;8.52;;;2.72;;
66129;SDS011;52930;51.464;11.764;2022-11-15T14:26:39;7.72;;;2.58;;
66129;SDS011;52930;51.464;11.764;2022-11-15T14:31:49;6.30;;;2.33;;
66129;SDS011;52930;51.464;11.764;2022-11-15T14:34:15;6.50;;;2.35;;
66129;SDS011;52930;51.464;11.764;2022-11-15T14:36:40;8.60;;;2.57;;
66129;SDS011;52930;51.464;11.764;2022-11-15T14:39:05;6.83;;;2.70;;
66129;SDS011;52930;51.464;11.764;2022-11-15T14:41:34;12.68;;;3.78;;
66129;SDS011;52930;51.464;11.764;2022-11-15T14:44:03;9.27;;;3.20;;
66129;SDS011;52930;51.464;11.764;2022-11-15T14:46:28;11.30;;;3.47;;
66129;SDS011;52930;51.464;11.764;2022-11-15T14:48:54;8.40;;;3.57;;
66129;SDS011;52930;51.464;11.764;2022-11-15T14:51:19;7.93;;;3.40;;
66129;SDS011;52930;51.464;11.764;2022-11-15T14:53:45;6.83;;;2.73;;
66129;SDS011;52930;51.464;11.764;2022-11-15T14:56:11;9.00;;;3.00;;
66129;SDS011;52930;51.464;11.764;2022-11-15T14:58:37;8.73;;;3.05;;
66129;SDS011;52930;51.464;11.764;2022-11-15T15:01:10;7.97;;;3.13;;
66129;SDS011;52930;51.464;11.764;2022-11-15T15:03:38;7.57;;;2.70;;
66129;SDS011;52930;51.464;11.764;2022-11-15T15:06:04;8.53;;;3.70;;
66129;SDS011;52930;51.464;11.764;2022-11-15T15:08:29;11.95;;;3.40;;
66129;SDS011;52930;51.464;11.764;2022-11-15T15:10:55;9.87;;;3.30;;
66129;SDS011;52930;51.464;11.764;2022-11-15T15:13:21;7.53;;;2.37;;
66129;SDS011;52930;51.464;11.764;2022-11-15T15:15:48;8.40;;;2.83;;
66129;SDS011;52930;51.464;11.764;2022-11-15T15:18:14;8.23;;;3.03;;
66129;SDS011;52930;51.464;11.764;2022-11-15T15:20:40;8.15;;;3.40;;
66129;SDS011;52930;51.464;11.764;2022-11-15T15:23:17;10.95;;;3.03;;
66129;SDS011;52930;51.464;11.764;2022-11-15T15:25:44;7.70;;;3.17;;
66129;SDS011;52930;51.464;11.764;2022-11-15T15:28:10;9.17;;;3.50;;
66129;SDS011;52930;51.464;11.764;2022-11-15T15:30:36;7.50;;;3.00;;
66129;SDS011;52930;51.464;11.764;2022-11-15T15:33:02;11.37;;;4.00;;
66129;SDS011;52930;51.464;11.764;2022-11-15T15:35:29;8.57;;;4.40;;
66129;SDS011;52930;51.464;11.764;2022-11-15T15:37:55;10.18;;;4.00;;
66129;SDS011;52930;51.464;11.764;2022-11-15T15:40:24;12.30;;;4.05;;
66129;SDS011;52930;51.464;11.764;2022-11-15T15:42:51;10.77;;;4.07;;
66129;SDS011;52930;51.464;11.764;2022-11-15T15:45:17;7.60;;;3.67;;
66129;SDS011;52930;51.464;11.764;2022-11-15T15:47:43;9.48;;;3.78;;
66129;SDS011;52930;51.464;11.764;2022-11-15T15:50:12;12.75;;;4.45;;
66129;SDS011;52930;51.464;11.764;2022-11-15T15:52:50;10.90;;;4.20;;
66129;SDS011;52930;51.464;11.764;2022-11-15T15:55:17;9.93;;;3.50;;
66129;SDS011;52930;51.464;11.764;2022-11-15T15:57:42;10.48;;;3.90;;
66129;SDS011;52930;51.464;11.764;2022-11-15T16:00:08;8.60;;;3.50;;
66129;SDS011;52930;51.464;11.764;2022-11-15T16:02:34;7.80;;;3.30;;
66129;SDS011;52930;51.464;11.764;2022-11-15T16:05:00;9.30;;;4.07;;
66129;SDS011;52930;51.464;11.764;2022-11-15T16:07:25;12.20;;;5.47;;
66129;SDS011;52930;51.464;11.764;2022-11-15T16:09:50;9.73;;;3.80;;
66129;SDS011;52930;51.464;11.764;2022-11-15T16:12:25;8.55;;;4.28;;
66129;SDS011;52930;51.464;11.764;2022-11-15T16:14:54;12.18;;;4.38;;
66129;SDS011;52930;51.464;11.764;2022-11-15T16:17:21;9.17;;;4.37;;
66129;SDS011;52930;51.464;11.764;2022-11-15T16:19:48;10.57;;;3.88;;
66129;SDS011;52930;51.464;11.764;2022-11-15T16:22:13;11.63;;;3.97;;
66129;SDS011;52930;51.464;11.764;2022-11-15T16:24:38;10.07;;;3.80;;
66129;SDS011;52930;51.464;11.764;2022-11-15T16:27:04;14.40;;;4.20;;
66129;SDS011;52930;51.464;11.764;2022-11-15T16:29:29;8.55;;;3.55;;
66129;SDS011;52930;51.464;11.764;2022-11-15T16:31:55;9.40;;;4.00;;
66129;SDS011;52930;51.464;11.764;2022-11-15T16:34:20;8.60;;;3.80;;
66129;SDS011;52930;51.464;11.764;2022-11-15T16:36:46;10.52;;;3.72;;
66129;SDS011;52930;51.464;11.764;2022-11-15T16:39:12;10.37;;;4.00;;
66129;SDS011;52930;51.464;11.764;2022-11-15T16:41:43;10.38;;;4.53;;
66129;SDS011;52930;51.464;11.764;2022-11-15T16:44:11;28.07;;;13.10;;